sensor_id;sensor_type;location;lat;lon;timestamp;P1;durP1;ratioP1;P2;durP2;ratioP2
21636;SDS011;10980;49.596;6.142;2023-02-28T00:00:17;1.90;;;1.10;;
21636;SDS011;10980;49.596;6.142;2023-02-28T00:03:39;1.53;;;1.10;;
21636;SDS011;10980;49.596;6.142;2023-02-28T00:07:01;1.73;;;1.13;;
21636;SDS011;10980;49.596;6.142;2023-02-28T00:10:25;2.60;;;1.37;;
21636;SDS011;10980;49.596;6.142;2023-02-28T00:13:52;1.63;;;1.13;;
21636;SDS011;10980;49.596;6.142;2023-02-28T00:17:16;2.00;;;1.27;;
21636;SDS011;10980;49.596;6.142;2023-02-28T00:20:43;1.17;;;0.90;;
21636;SDS011;10980;49.596;6.142;2023-02-28T00:24:06;2.07;;;1.60;;
21636;SDS011;10980;49.596;6.142;2023-02-28T00:27:28;2.73;;;1.20;;
21636;SDS011;10980;49.596;6.142;2023-02-28T00:30:50;1.93;;;1.20;;
21636;SDS011;10980;49.596;6.142;2023-02-28T00:34:15;2.57;;;1.20;;
21636;SDS011;10980;49.596;6.142;2023-02-28T00:37:39;2.13;;;1.33;;
21636;SDS011;10980;49.596;6.142;2023-02-28T00:41:01;1.20;;;1.00;;
21636;SDS011;10980;49.596;6.142;2023-02-28T00:44:26;2.83;;;1.17;;
21636;SDS011;10980;49.596;6.142;2023-02-28T00:47:48;4.43;;;1.30;;
21636;SDS011;10980;49.596;6.142;2023-02-28T00:51:12;2.33;;;1.77;;
21636;SDS011;10980;49.596;6.142;2023-02-28T00:54:34;481.33;;;436.23;;
21636;SDS011;10980;49.596;6.142;2023-02-28T00:57:56;540.53;;;496.53;;
21636;SDS011;10980;49.596;6.142;2023-02-28T01:01:20;551.63;;;508.57;;
21636;SDS011;10980;49.596;6.142;2023-02-28T01:04:49;706.10;;;646.97;;
21636;SDS011;10980;49.596;6.142;2023-02-28T01:08:13;82.53;;;74.13;;
21636;SDS011;10980;49.596;6.142;2023-02-28T01:11:35;317.40;;;289.17;;
21636;SDS011;10980;49.596;6.142;2023-02-28T01:14:57;499.20;;;454.67;;
21636;SDS011;10980;49.596;6.142;2023-02-28T01:18:20;629.17;;;574.70;;
21636;SDS011;10980;49.596;6.142;2023-02-28T01:21:43;1027.80;;;659.37;;
21636;SDS011;10980;49.596;6.142;2023-02-28T01:25:06;1999.90;;;999.90;;
21636;SDS011;10980;49.596;6.142;2023-02-28T01:28:29;1999.90;;;999.90;;
21636;SDS011;10980;49.596;6.142;2023-02-28T01:31:53;1999.90;;;999.90;;
21636;SDS011;10980;49.596;6.142;2023-02-28T01:35:16;1999.90;;;999.90;;
21636;SDS011;10980;49.596;6.142;2023-02-28T01:38:38;327.27;;;279.90;;
21636;SDS011;10980;49.596;6.142;2023-02-28T01:42:00;1244.90;;;595.67;;
21636;SDS011;10980;49.596;6.142;2023-02-28T01:45:26;1047.40;;;628.50;;
21636;SDS011;10980;49.596;6.142;2023-02-28T01:52:34;470.63;;;297.00;;
21636;SDS011;10980;49.596;6.142;2023-02-28T01:55:58;457.50;;;221.57;;
21636;SDS011;10980;49.596;6.142;2023-02-28T01:59:41;65.63;;;58.83;;
21636;SDS011;10980;49.596;6.142;2023-02-28T02:03:21;51.23;;;46.70;;
21636;SDS011;10980;49.596;6.142;2023-02-28T02:06:44;5.50;;;1.77;;
21636;SDS011;10980;49.596;6.142;2023-02-28T02:14:29;3.53;;;1.83;;
21636;SDS011;10980;49.596;6.142;2023-02-28T02:17:44;2.17;;;1.43;;
21636;SDS011;10980;49.596;6.142;2023-02-28T02:28:51;2.03;;;1.60;;
21636;SDS011;10980;49.596;6.142;2023-02-28T02:37:25;2.03;;;1.60;;
21636;SDS011;10980;49.596;6.142;2023-02-28T02:41:04;2.37;;;1.30;;
21636;SDS011;10980;49.596;6.142;2023-02-28T02:44:43;7.93;;;2.57;;
21636;SDS011;10980;49.596;6.142;2023-02-28T02:48:18;4.20;;;1.50;;
21636;SDS011;10980;49.596;6.142;2023-02-28T02:51:46;3.13;;;1.63;;
21636;SDS011;10980;49.596;6.142;2023-02-28T02:55:26;1.97;;;1.30;;
21636;SDS011;10980;49.596;6.142;2023-02-28T02:58:51;4.20;;;1.80;;
21636;SDS011;10980;49.596;6.142;2023-02-28T03:02:22;2.07;;;1.50;;
21636;SDS011;10980;49.596;6.142;2023-02-28T03:05:49;2.00;;;1.50;;
21636;SDS011;10980;49.596;6.142;2023-02-28T03:09:13;5.13;;;1.77;;
21636;SDS011;10980;49.596;6.142;2023-02-28T03:12:40;3.67;;;1.73;;
21636;SDS011;10980;49.596;6.142;2023-02-28T03:24:17;3.73;;;1.53;;
21636;SDS011;10980;49.596;6.142;2023-02-28T03:31:30;7.03;;;1.80;;
21636;SDS011;10980;49.596;6.142;2023-02-28T03:35:10;3.27;;;1.93;;
21636;SDS011;10980;49.596;6.142;2023-02-28T03:38:59;4.63;;;1.80;;
21636;SDS011;10980;49.596;6.142;2023-02-28T03:42:29;5.40;;;2.10;;
21636;SDS011;10980;49.596;6.142;2023-02-28T03:45:56;3.37;;;1.80;;
21636;SDS011;10980;49.596;6.142;2023-02-28T03:49:32;3.30;;;1.70;;
21636;SDS011;10980;49.596;6.142;2023-02-28T03:53:18;3.50;;;1.80;;
21636;SDS011;10980;49.596;6.142;2023-02-28T03:56:58;4.00;;;2.33;;
21636;SDS011;10980;49.596;6.142;2023-02-28T04:00:34;5.40;;;1.97;;
21636;SDS011;10980;49.596;6.142;2023-02-28T04:04:02;4.00;;;2.00;;
21636;SDS011;10980;49.596;6.142;2023-02-28T04:07:28;4.53;;;1.73;;
21636;SDS011;10980;49.596;6.142;2023-02-28T04:11:36;3.63;;;2.30;;
21636;SDS011;10980;49.596;6.142;2023-02-28T04:14:45;3.27;;;2.03;;
21636;SDS011;10980;49.596;6.142;2023-02-28T04:18:08;6.43;;;2.53;;
21636;SDS011;10980;49.596;6.142;2023-02-28T04:21:40;4.77;;;2.77;;
21636;SDS011;10980;49.596;6.142;2023-02-28T04:25:08;6.00;;;2.97;;
21636;SDS011;10980;49.596;6.142;2023-02-28T04:28:29;6.03;;;2.90;;
21636;SDS011;10980;49.596;6.142;2023-02-28T04:31:51;5.13;;;2.70;;
21636;SDS011;10980;49.596;6.142;2023-02-28T04:35:14;7.47;;;2.63;;
21636;SDS011;10980;49.596;6.142;2023-02-28T04:38:37;4.70;;;2.87;;
21636;SDS011;10980;49.596;6.142;2023-02-28T04:42:00;8.40;;;3.23;;
21636;SDS011;10980;49.596;6.142;2023-02-28T04:45:22;8.50;;;3.00;;
21636;SDS011;10980;49.596;6.142;2023-02-28T04:48:44;7.10;;;3.57;;
21636;SDS011;10980;49.596;6.142;2023-02-28T04:52:11;5.83;;;3.53;;
21636;SDS011;10980;49.596;6.142;2023-02-28T04:55:42;6.40;;;3.73;;
21636;SDS011;10980;49.596;6.142;2023-02-28T04:59:05;7.13;;;3.63;;
21636;SDS011;10980;49.596;6.142;2023-02-28T05:02:27;7.70;;;3.47;;
21636;SDS011;10980;49.596;6.142;2023-02-28T05:05:52;9.50;;;4.20;;
21636;SDS011;10980;49.596;6.142;2023-02-28T05:09:16;8.63;;;3.97;;
21636;SDS011;10980;49.596;6.142;2023-02-28T05:12:37;9.50;;;4.40;;
21636;SDS011;10980;49.596;6.142;2023-02-28T05:16:01;7.27;;;3.87;;
21636;SDS011;10980;49.596;6.142;2023-02-28T05:19:23;11.93;;;4.97;;
21636;SDS011;10980;49.596;6.142;2023-02-28T05:22:46;7.53;;;4.03;;
21636;SDS011;10980;49.596;6.142;2023-02-28T05:26:14;11.17;;;4.23;;
21636;SDS011;10980;49.596;6.142;2023-02-28T05:29:36;11.00;;;4.47;;
21636;SDS011;10980;49.596;6.142;2023-02-28T05:33:10;7.80;;;4.33;;
21636;SDS011;10980;49.596;6.142;2023-02-28T05:36:33;8.80;;;4.20;;
21636;SDS011;10980;49.596;6.142;2023-02-28T05:39:59;9.53;;;4.97;;
21636;SDS011;10980;49.596;6.142;2023-02-28T05:43:23;9.73;;;4.00;;
21636;SDS011;10980;49.596;6.142;2023-02-28T05:46:47;8.43;;;4.80;;
21636;SDS011;10980;49.596;6.142;2023-02-28T05:50:09;12.40;;;5.30;;
21636;SDS011;10980;49.596;6.142;2023-02-28T05:53:32;13.10;;;4.70;;
21636;SDS011;10980;49.596;6.142;2023-02-28T05:56:55;11.90;;;5.53;;
21636;SDS011;10980;49.596;6.142;2023-02-28T06:00:17;9.43;;;4.63;;
21636;SDS011;10980;49.596;6.142;2023-02-28T06:03:42;9.30;;;5.03;;
21636;SDS011;10980;49.596;6.142;2023-02-28T06:07:03;14.67;;;4.90;;
21636;SDS011;10980;49.596;6.142;2023-02-28T06:10:25;14.90;;;4.90;;
21636;SDS011;10980;49.596;6.142;2023-02-28T06:13:47;12.10;;;5.40;;
21636;SDS011;10980;49.596;6.142;2023-02-28T06:17:09;12.50;;;5.70;;
21636;SDS011;10980;49.596;6.142;2023-02-28T06:20:31;13.83;;;5.67;;
21636;SDS011;10980;49.596;6.142;2023-02-28T06:23:55;8.70;;;4.77;;
21636;SDS011;10980;49.596;6.142;2023-02-28T06:27:19;10.97;;;5.30;;
21636;SDS011;10980;49.596;6.142;2023-02-28T06:30:41;11.93;;;5.27;;
21636;SDS011;10980;49.596;6.142;2023-02-28T06:34:13;11.73;;;5.53;;
21636;SDS011;10980;49.596;6.142;2023-02-28T06:37:42;9.97;;;5.07;;
21636;SDS011;10980;49.596;6.142;2023-02-28T06:41:09;10.10;;;5.27;;
21636;SDS011;10980;49.596;6.142;2023-02-28T06:44:32;10.67;;;5.47;;
21636;SDS011;10980;49.596;6.142;2023-02-28T06:47:57;11.57;;;5.73;;
21636;SDS011;10980;49.596;6.142;2023-02-28T06:51:20;9.20;;;5.27;;
21636;SDS011;10980;49.596;6.142;2023-02-28T06:54:44;14.33;;;5.63;;
21636;SDS011;10980;49.596;6.142;2023-02-28T06:58:06;14.97;;;5.67;;
21636;SDS011;10980;49.596;6.142;2023-02-28T07:01:47;13.53;;;5.40;;
21636;SDS011;10980;49.596;6.142;2023-02-28T07:05:09;12.27;;;5.40;;
21636;SDS011;10980;49.596;6.142;2023-02-28T07:08:35;12.53;;;5.87;;
21636;SDS011;10980;49.596;6.142;2023-02-28T07:11:57;10.77;;;5.83;;
21636;SDS011;10980;49.596;6.142;2023-02-28T07:15:19;12.97;;;6.00;;
21636;SDS011;10980;49.596;6.142;2023-02-28T07:18:47;14.17;;;6.10;;
21636;SDS011;10980;49.596;6.142;2023-02-28T07:22:10;15.23;;;5.50;;
21636;SDS011;10980;49.596;6.142;2023-02-28T07:25:35;11.80;;;5.50;;
21636;SDS011;10980;49.596;6.142;2023-02-28T07:28:57;12.43;;;5.67;;
21636;SDS011;10980;49.596;6.142;2023-02-28T07:32:19;14.57;;;5.37;;
21636;SDS011;10980;49.596;6.142;2023-02-28T07:35:41;9.97;;;5.13;;
21636;SDS011;10980;49.596;6.142;2023-02-28T07:39:05;13.00;;;5.43;;
21636;SDS011;10980;49.596;6.142;2023-02-28T07:42:28;9.67;;;4.93;;
21636;SDS011;10980;49.596;6.142;2023-02-28T07:45:51;10.40;;;4.57;;
21636;SDS011;10980;49.596;6.142;2023-02-28T07:49:13;10.13;;;5.00;;
21636;SDS011;10980;49.596;6.142;2023-02-28T07:52:35;9.33;;;4.23;;
21636;SDS011;10980;49.596;6.142;2023-02-28T07:55:59;13.90;;;4.53;;
21636;SDS011;10980;49.596;6.142;2023-02-28T07:59:23;8.23;;;4.70;;
21636;SDS011;10980;49.596;6.142;2023-02-28T08:02:45;7.93;;;4.37;;
21636;SDS011;10980;49.596;6.142;2023-02-28T08:06:07;11.00;;;5.33;;
21636;SDS011;10980;49.596;6.142;2023-02-28T08:09:43;10.90;;;4.63;;
21636;SDS011;10980;49.596;6.142;2023-02-28T08:13:05;8.50;;;4.37;;
21636;SDS011;10980;49.596;6.142;2023-02-28T08:16:28;6.57;;;4.03;;
21636;SDS011;10980;49.596;6.142;2023-02-28T08:19:52;10.13;;;4.67;;
21636;SDS011;10980;49.596;6.142;2023-02-28T08:23:14;9.17;;;4.50;;
21636;SDS011;10980;49.596;6.142;2023-02-28T08:26:36;7.57;;;3.80;;
21636;SDS011;10980;49.596;6.142;2023-02-28T08:29:58;8.80;;;4.90;;
21636;SDS011;10980;49.596;6.142;2023-02-28T08:33:23;10.70;;;4.70;;
21636;SDS011;10980;49.596;6.142;2023-02-28T08:36:49;10.73;;;4.50;;
21636;SDS011;10980;49.596;6.142;2023-02-28T08:40:13;7.23;;;4.30;;
21636;SDS011;10980;49.596;6.142;2023-02-28T08:43:39;7.63;;;4.03;;
21636;SDS011;10980;49.596;6.142;2023-02-28T08:47:02;7.57;;;3.93;;
21636;SDS011;10980;49.596;6.142;2023-02-28T08:50:24;9.37;;;4.23;;
21636;SDS011;10980;49.596;6.142;2023-02-28T08:53:46;6.20;;;4.03;;
21636;SDS011;10980;49.596;6.142;2023-02-28T08:57:11;7.83;;;3.47;;
21636;SDS011;10980;49.596;6.142;2023-02-28T09:00:34;6.60;;;3.80;;
21636;SDS011;10980;49.596;6.142;2023-02-28T09:04:08;12.03;;;4.30;;
21636;SDS011;10980;49.596;6.142;2023-02-28T09:07:35;9.60;;;3.93;;
21636;SDS011;10980;49.596;6.142;2023-02-28T09:10:59;7.43;;;4.27;;
21636;SDS011;10980;49.596;6.142;2023-02-28T09:14:23;7.57;;;3.93;;
21636;SDS011;10980;49.596;6.142;2023-02-28T09:17:45;6.77;;;3.53;;
21636;SDS011;10980;49.596;6.142;2023-02-28T09:21:09;8.77;;;4.10;;
21636;SDS011;10980;49.596;6.142;2023-02-28T09:24:35;1999.90;;;999.90;;
21636;SDS011;10980;49.596;6.142;2023-02-28T09:28:04;772.90;;;408.63;;
21636;SDS011;10980;49.596;6.142;2023-02-28T09:31:33;189.23;;;131.27;;
21636;SDS011;10980;49.596;6.142;2023-02-28T09:34:55;45.80;;;42.13;;
21636;SDS011;10980;49.596;6.142;2023-02-28T09:41:44;9.17;;;3.47;;
21636;SDS011;10980;49.596;6.142;2023-02-28T09:45:21;7.10;;;3.57;;
21636;SDS011;10980;49.596;6.142;2023-02-28T09:48:52;6.53;;;3.20;;
21636;SDS011;10980;49.596;6.142;2023-02-28T09:52:19;3.87;;;2.60;;
21636;SDS011;10980;49.596;6.142;2023-02-28T09:55:59;5.17;;;2.87;;
21636;SDS011;10980;49.596;6.142;2023-02-28T09:59:31;5.63;;;3.03;;
21636;SDS011;10980;49.596;6.142;2023-02-28T10:03:55;5.00;;;2.80;;
21636;SDS011;10980;49.596;6.142;2023-02-28T10:11:01;6.73;;;3.07;;
21636;SDS011;10980;49.596;6.142;2023-02-28T10:14:29;5.83;;;2.80;;
21636;SDS011;10980;49.596;6.142;2023-02-28T10:18:03;6.43;;;3.20;;
21636;SDS011;10980;49.596;6.142;2023-02-28T10:21:49;3.40;;;2.40;;
21636;SDS011;10980;49.596;6.142;2023-02-28T10:25:26;5.43;;;2.90;;
21636;SDS011;10980;49.596;6.142;2023-02-28T10:28:50;4.13;;;2.90;;
21636;SDS011;10980;49.596;6.142;2023-02-28T10:35:48;7.57;;;3.10;;
21636;SDS011;10980;49.596;6.142;2023-02-28T10:43:12;6.10;;;3.00;;
21636;SDS011;10980;49.596;6.142;2023-02-28T10:46:39;5.30;;;2.73;;
21636;SDS011;10980;49.596;6.142;2023-02-28T10:50:05;4.77;;;3.03;;
21636;SDS011;10980;49.596;6.142;2023-02-28T10:53:54;5.97;;;3.57;;
21636;SDS011;10980;49.596;6.142;2023-02-28T10:57:24;4.97;;;3.03;;
21636;SDS011;10980;49.596;6.142;2023-02-28T11:00:46;9.13;;;3.20;;
21636;SDS011;10980;49.596;6.142;2023-02-28T11:04:16;5.60;;;3.27;;
21636;SDS011;10980;49.596;6.142;2023-02-28T11:07:54;5.07;;;3.10;;
21636;SDS011;10980;49.596;6.142;2023-02-28T11:11:42;5.40;;;3.20;;
21636;SDS011;10980;49.596;6.142;2023-02-28T11:15:21;7.20;;;3.33;;
21636;SDS011;10980;49.596;6.142;2023-02-28T11:22:47;7.03;;;3.43;;
21636;SDS011;10980;49.596;6.142;2023-02-28T11:26:06;7.00;;;3.43;;
21636;SDS011;10980;49.596;6.142;2023-02-28T11:29:32;5.87;;;3.67;;
21636;SDS011;10980;49.596;6.142;2023-02-28T11:32:57;5.90;;;3.23;;
21636;SDS011;10980;49.596;6.142;2023-02-28T11:36:21;9.80;;;3.60;;
21636;SDS011;10980;49.596;6.142;2023-02-28T11:39:53;11.33;;;3.60;;
21636;SDS011;10980;49.596;6.142;2023-02-28T11:46:47;7.47;;;4.17;;
21636;SDS011;10980;49.596;6.142;2023-02-28T11:54:08;8.10;;;4.07;;
21636;SDS011;10980;49.596;6.142;2023-02-28T12:05:34;7.20;;;3.80;;
21636;SDS011;10980;49.596;6.142;2023-02-28T12:16:57;7.57;;;4.10;;
21636;SDS011;10980;49.596;6.142;2023-02-28T12:29:24;5.37;;;3.37;;
21636;SDS011;10980;49.596;6.142;2023-02-28T12:33:14;6.30;;;3.50;;
21636;SDS011;10980;49.596;6.142;2023-02-28T12:36:48;7.37;;;4.03;;
21636;SDS011;10980;49.596;6.142;2023-02-28T12:40:21;6.97;;;3.63;;
21636;SDS011;10980;49.596;6.142;2023-02-28T12:43:51;7.50;;;4.20;;
21636;SDS011;10980;49.596;6.142;2023-02-28T12:47:33;8.13;;;3.93;;
21636;SDS011;10980;49.596;6.142;2023-02-28T12:50:55;6.37;;;3.57;;
21636;SDS011;10980;49.596;6.142;2023-02-28T12:58:41;14.03;;;3.43;;
21636;SDS011;10980;49.596;6.142;2023-02-28T13:06:18;6.83;;;3.73;;
21636;SDS011;10980;49.596;6.142;2023-02-28T13:10:04;8.33;;;4.40;;
21636;SDS011;10980;49.596;6.142;2023-02-28T13:13:29;6.90;;;4.50;;
21636;SDS011;10980;49.596;6.142;2023-02-28T13:20:47;11.90;;;4.70;;
21636;SDS011;10980;49.596;6.142;2023-02-28T13:24:35;8.37;;;3.87;;
21636;SDS011;10980;49.596;6.142;2023-02-28T13:27:57;11.53;;;4.90;;
21636;SDS011;10980;49.596;6.142;2023-02-28T13:31:21;7.23;;;4.07;;
21636;SDS011;10980;49.596;6.142;2023-02-28T13:35:13;5.83;;;3.97;;
21636;SDS011;10980;49.596;6.142;2023-02-28T13:43:17;10.20;;;4.40;;
21636;SDS011;10980;49.596;6.142;2023-02-28T13:54:04;8.43;;;3.67;;
21636;SDS011;10980;49.596;6.142;2023-02-28T13:57:47;7.50;;;3.90;;
21636;SDS011;10980;49.596;6.142;2023-02-28T14:05:28;12.00;;;3.70;;
21636;SDS011;10980;49.596;6.142;2023-02-28T14:16:20;8.47;;;3.73;;
21636;SDS011;10980;49.596;6.142;2023-02-28T14:19:48;5.87;;;3.50;;
21636;SDS011;10980;49.596;6.142;2023-02-28T14:23:24;7.17;;;3.87;;
21636;SDS011;10980;49.596;6.142;2023-02-28T14:27:21;7.10;;;4.00;;
21636;SDS011;10980;49.596;6.142;2023-02-28T14:31:15;7.83;;;3.90;;
21636;SDS011;10980;49.596;6.142;2023-02-28T14:34:55;5.93;;;3.40;;
21636;SDS011;10980;49.596;6.142;2023-02-28T14:39:03;6.90;;;4.17;;
21636;SDS011;10980;49.596;6.142;2023-02-28T14:42:36;7.07;;;3.80;;
21636;SDS011;10980;49.596;6.142;2023-02-28T14:46:04;6.57;;;3.93;;
21636;SDS011;10980;49.596;6.142;2023-02-28T14:49:36;8.20;;;3.87;;
21636;SDS011;10980;49.596;6.142;2023-02-28T14:53:06;8.20;;;4.00;;
21636;SDS011;10980;49.596;6.142;2023-02-28T14:56:42;6.60;;;4.27;;
21636;SDS011;10980;49.596;6.142;2023-02-28T15:04:12;7.67;;;4.03;;
21636;SDS011;10980;49.596;6.142;2023-02-28T15:08:02;7.73;;;4.00;;
21636;SDS011;10980;49.596;6.142;2023-02-28T15:11:47;9.23;;;3.60;;
21636;SDS011;10980;49.596;6.142;2023-02-28T15:15:16;7.83;;;4.00;;
21636;SDS011;10980;49.596;6.142;2023-02-28T15:18:43;7.60;;;4.03;;
21636;SDS011;10980;49.596;6.142;2023-02-28T15:22:14;7.33;;;3.70;;
21636;SDS011;10980;49.596;6.142;2023-02-28T15:25:50;8.13;;;3.90;;
21636;SDS011;10980;49.596;6.142;2023-02-28T15:32:47;6.90;;;4.07;;
21636;SDS011;10980;49.596;6.142;2023-02-28T15:36:35;7.27;;;3.67;;
21636;SDS011;10980;49.596;6.142;2023-02-28T15:40:04;13.53;;;4.10;;
21636;SDS011;10980;49.596;6.142;2023-02-28T15:47:48;7.43;;;4.40;;
21636;SDS011;10980;49.596;6.142;2023-02-28T15:51:20;5.00;;;3.70;;
21636;SDS011;10980;49.596;6.142;2023-02-28T15:54:50;8.00;;;4.23;;
21636;SDS011;10980;49.596;6.142;2023-02-28T15:58:19;9.10;;;4.77;;
21636;SDS011;10980;49.596;6.142;2023-02-28T16:01:45;10.60;;;4.43;;
21636;SDS011;10980;49.596;6.142;2023-02-28T16:05:41;10.03;;;4.60;;
21636;SDS011;10980;49.596;6.142;2023-02-28T16:08:56;10.73;;;4.27;;
21636;SDS011;10980;49.596;6.142;2023-02-28T16:12:18;7.43;;;3.83;;
21636;SDS011;10980;49.596;6.142;2023-02-28T16:15:44;8.00;;;4.00;;
21636;SDS011;10980;49.596;6.142;2023-02-28T16:19:12;7.40;;;4.03;;
21636;SDS011;10980;49.596;6.142;2023-02-28T16:22:34;7.13;;;4.20;;
21636;SDS011;10980;49.596;6.142;2023-02-28T16:26:02;6.77;;;3.67;;
21636;SDS011;10980;49.596;6.142;2023-02-28T16:29:30;7.73;;;3.93;;
21636;SDS011;10980;49.596;6.142;2023-02-28T16:32:57;9.90;;;4.50;;
21636;SDS011;10980;49.596;6.142;2023-02-28T16:36:21;10.17;;;3.80;;
21636;SDS011;10980;49.596;6.142;2023-02-28T16:39:48;9.33;;;4.03;;
21636;SDS011;10980;49.596;6.142;2023-02-28T16:43:18;5.97;;;4.07;;
21636;SDS011;10980;49.596;6.142;2023-02-28T16:46:48;8.87;;;4.60;;
21636;SDS011;10980;49.596;6.142;2023-02-28T16:50:29;11.90;;;4.80;;
21636;SDS011;10980;49.596;6.142;2023-02-28T16:53:53;7.43;;;4.00;;
21636;SDS011;10980;49.596;6.142;2023-02-28T16:57:20;9.83;;;4.83;;
21636;SDS011;10980;49.596;6.142;2023-02-28T17:00:44;7.37;;;4.27;;
21636;SDS011;10980;49.596;6.142;2023-02-28T17:04:08;10.00;;;4.60;;
21636;SDS011;10980;49.596;6.142;2023-02-28T17:07:33;8.60;;;4.97;;
21636;SDS011;10980;49.596;6.142;2023-02-28T17:10:55;8.67;;;4.43;;
21636;SDS011;10980;49.596;6.142;2023-02-28T17:14:17;9.00;;;4.50;;
21636;SDS011;10980;49.596;6.142;2023-02-28T17:17:39;7.03;;;4.33;;
21636;SDS011;10980;49.596;6.142;2023-02-28T17:21:08;7.23;;;4.53;;
21636;SDS011;10980;49.596;6.142;2023-02-28T17:24:35;7.53;;;4.67;;
21636;SDS011;10980;49.596;6.142;2023-02-28T17:27:57;8.73;;;5.20;;
21636;SDS011;10980;49.596;6.142;2023-02-28T17:31:19;9.80;;;5.13;;
21636;SDS011;10980;49.596;6.142;2023-02-28T17:34:47;10.30;;;4.73;;
21636;SDS011;10980;49.596;6.142;2023-02-28T17:38:14;12.23;;;5.47;;
21636;SDS011;10980;49.596;6.142;2023-02-28T17:41:40;9.33;;;5.50;;
21636;SDS011;10980;49.596;6.142;2023-02-28T17:45:03;10.30;;;4.97;;
21636;SDS011;10980;49.596;6.142;2023-02-28T17:48:25;9.27;;;5.27;;
21636;SDS011;10980;49.596;6.142;2023-02-28T17:51:48;10.20;;;5.50;;
21636;SDS011;10980;49.596;6.142;2023-02-28T17:55:21;9.30;;;5.03;;
21636;SDS011;10980;49.596;6.142;2023-02-28T17:58:43;12.90;;;5.60;;
21636;SDS011;10980;49.596;6.142;2023-02-28T18:02:06;11.63;;;5.10;;
21636;SDS011;10980;49.596;6.142;2023-02-28T18:05:31;10.70;;;5.23;;
21636;SDS011;10980;49.596;6.142;2023-02-28T18:08:54;11.87;;;5.07;;
21636;SDS011;10980;49.596;6.142;2023-02-28T18:12:16;7.70;;;4.30;;
21636;SDS011;10980;49.596;6.142;2023-02-28T18:15:38;11.17;;;5.03;;
21636;SDS011;10980;49.596;6.142;2023-02-28T18:19:06;17.00;;;5.53;;
21636;SDS011;10980;49.596;6.142;2023-02-28T18:22:36;7.93;;;4.53;;
21636;SDS011;10980;49.596;6.142;2023-02-28T18:26:07;8.67;;;4.57;;
21636;SDS011;10980;49.596;6.142;2023-02-28T18:29:29;9.80;;;5.07;;
21636;SDS011;10980;49.596;6.142;2023-02-28T18:32:56;10.13;;;4.50;;
21636;SDS011;10980;49.596;6.142;2023-02-28T18:39:50;12.30;;;5.70;;
21636;SDS011;10980;49.596;6.142;2023-02-28T18:43:13;12.47;;;5.60;;
21636;SDS011;10980;49.596;6.142;2023-02-28T18:46:35;9.40;;;4.87;;
21636;SDS011;10980;49.596;6.142;2023-02-28T18:50:00;8.47;;;5.03;;
21636;SDS011;10980;49.596;6.142;2023-02-28T18:53:22;11.77;;;5.23;;
21636;SDS011;10980;49.596;6.142;2023-02-28T18:56:45;10.77;;;4.90;;
21636;SDS011;10980;49.596;6.142;2023-02-28T19:00:08;15.77;;;6.00;;
21636;SDS011;10980;49.596;6.142;2023-02-28T19:03:44;12.50;;;5.60;;
21636;SDS011;10980;49.596;6.142;2023-02-28T19:07:06;10.53;;;5.50;;
21636;SDS011;10980;49.596;6.142;2023-02-28T19:10:28;12.27;;;6.10;;
21636;SDS011;10980;49.596;6.142;2023-02-28T19:13:51;13.33;;;6.20;;
21636;SDS011;10980;49.596;6.142;2023-02-28T19:17:13;12.50;;;6.30;;
21636;SDS011;10980;49.596;6.142;2023-02-28T19:20:38;20.03;;;6.83;;
21636;SDS011;10980;49.596;6.142;2023-02-28T19:24:01;15.60;;;5.87;;
21636;SDS011;10980;49.596;6.142;2023-02-28T19:27:26;15.33;;;5.87;;
21636;SDS011;10980;49.596;6.142;2023-02-28T19:30:49;14.97;;;6.17;;
21636;SDS011;10980;49.596;6.142;2023-02-28T19:34:14;13.23;;;6.33;;
21636;SDS011;10980;49.596;6.142;2023-02-28T19:37:36;11.83;;;6.23;;
21636;SDS011;10980;49.596;6.142;2023-02-28T19:41:04;14.23;;;6.03;;
21636;SDS011;10980;49.596;6.142;2023-02-28T19:44:32;13.23;;;5.60;;
21636;SDS011;10980;49.596;6.142;2023-02-28T19:47:54;10.67;;;5.60;;
21636;SDS011;10980;49.596;6.142;2023-02-28T19:51:16;10.73;;;5.43;;
21636;SDS011;10980;49.596;6.142;2023-02-28T19:54:44;13.47;;;6.50;;
21636;SDS011;10980;49.596;6.142;2023-02-28T19:58:07;22.10;;;7.03;;
21636;SDS011;10980;49.596;6.142;2023-02-28T20:01:30;14.33;;;6.70;;
21636;SDS011;10980;49.596;6.142;2023-02-28T20:04:53;11.43;;;5.73;;
21636;SDS011;10980;49.596;6.142;2023-02-28T20:08:21;11.63;;;5.87;;
21636;SDS011;10980;49.596;6.142;2023-02-28T20:11:44;9.90;;;5.23;;
21636;SDS011;10980;49.596;6.142;2023-02-28T20:15:06;11.30;;;5.80;;
21636;SDS011;10980;49.596;6.142;2023-02-28T20:18:29;13.80;;;6.30;;
21636;SDS011;10980;49.596;6.142;2023-02-28T20:21:51;11.63;;;5.57;;
21636;SDS011;10980;49.596;6.142;2023-02-28T20:25:13;8.97;;;4.80;;
21636;SDS011;10980;49.596;6.142;2023-02-28T20:28:35;9.27;;;5.27;;
21636;SDS011;10980;49.596;6.142;2023-02-28T20:31:58;12.47;;;5.23;;
21636;SDS011;10980;49.596;6.142;2023-02-28T20:35:20;11.17;;;5.33;;
21636;SDS011;10980;49.596;6.142;2023-02-28T20:38:43;12.57;;;5.93;;
21636;SDS011;10980;49.596;6.142;2023-02-28T20:42:06;14.17;;;5.63;;
21636;SDS011;10980;49.596;6.142;2023-02-28T20:45:28;12.27;;;5.97;;
21636;SDS011;10980;49.596;6.142;2023-02-28T20:48:51;11.20;;;6.27;;
21636;SDS011;10980;49.596;6.142;2023-02-28T20:52:14;11.33;;;5.30;;
21636;SDS011;10980;49.596;6.142;2023-02-28T20:55:36;11.20;;;5.73;;
21636;SDS011;10980;49.596;6.142;2023-02-28T20:58:58;12.03;;;5.67;;
21636;SDS011;10980;49.596;6.142;2023-02-28T21:02:20;12.00;;;6.33;;
21636;SDS011;10980;49.596;6.142;2023-02-28T21:05:43;14.77;;;6.37;;
21636;SDS011;10980;49.596;6.142;2023-02-28T21:09:10;13.80;;;6.47;;
21636;SDS011;10980;49.596;6.142;2023-02-28T21:12:34;9.23;;;5.47;;
21636;SDS011;10980;49.596;6.142;2023-02-28T21:16:01;11.07;;;6.00;;
21636;SDS011;10980;49.596;6.142;2023-02-28T21:19:29;14.70;;;5.80;;
21636;SDS011;10980;49.596;6.142;2023-02-28T21:22:58;9.83;;;5.53;;
21636;SDS011;10980;49.596;6.142;2023-02-28T21:26:22;14.60;;;5.73;;
21636;SDS011;10980;49.596;6.142;2023-02-28T21:29:45;11.47;;;5.50;;
21636;SDS011;10980;49.596;6.142;2023-02-28T21:33:15;12.90;;;6.40;;
21636;SDS011;10980;49.596;6.142;2023-02-28T21:36:38;10.50;;;5.43;;
21636;SDS011;10980;49.596;6.142;2023-02-28T21:40:05;10.63;;;5.00;;
21636;SDS011;10980;49.596;6.142;2023-02-28T21:43:28;12.67;;;5.73;;
21636;SDS011;10980;49.596;6.142;2023-02-28T21:46:51;12.73;;;5.40;;
21636;SDS011;10980;49.596;6.142;2023-02-28T21:50:17;12.53;;;5.93;;
21636;SDS011;10980;49.596;6.142;2023-02-28T21:53:40;16.03;;;7.17;;
21636;SDS011;10980;49.596;6.142;2023-02-28T21:57:03;11.47;;;5.63;;
21636;SDS011;10980;49.596;6.142;2023-02-28T22:00:25;10.30;;;4.87;;
21636;SDS011;10980;49.596;6.142;2023-02-28T22:03:49;11.83;;;5.27;;
21636;SDS011;10980;49.596;6.142;2023-02-28T22:07:13;11.80;;;5.53;;
21636;SDS011;10980;49.596;6.142;2023-02-28T22:10:40;11.87;;;5.07;;
21636;SDS011;10980;49.596;6.142;2023-02-28T22:14:02;10.37;;;5.80;;
21636;SDS011;10980;49.596;6.142;2023-02-28T22:17:27;12.97;;;5.60;;
21636;SDS011;10980;49.596;6.142;2023-02-28T22:20:53;13.97;;;6.50;;
21636;SDS011;10980;49.596;6.142;2023-02-28T22:24:17;11.60;;;5.43;;
21636;SDS011;10980;49.596;6.142;2023-02-28T22:27:42;13.47;;;5.73;;
21636;SDS011;10980;49.596;6.142;2023-02-28T22:31:17;13.53;;;5.67;;
21636;SDS011;10980;49.596;6.142;2023-02-28T22:34:44;9.57;;;4.80;;
21636;SDS011;10980;49.596;6.142;2023-02-28T22:38:09;12.03;;;5.60;;
21636;SDS011;10980;49.596;6.142;2023-02-28T22:41:31;11.77;;;5.50;;
21636;SDS011;10980;49.596;6.142;2023-02-28T22:44:53;11.77;;;5.70;;
21636;SDS011;10980;49.596;6.142;2023-02-28T22:48:17;12.43;;;5.10;;